createdAt,value
2022-12-15T00:00:47.624Z,-5.90
2022-12-15T00:03:33.670Z,-6.00
2022-12-15T00:06:20.163Z,-6.00
2022-12-15T00:09:08.536Z,-6.00
2022-12-15T00:11:58.257Z,-6.10
2022-12-15T00:14:45.235Z,-6.10
2022-12-15T00:17:30.914Z,-6.10
2022-12-15T00:20:16.533Z,-6.10
2022-12-15T00:23:02.564Z,-6.10
2022-12-15T00:25:48.856Z,-6.10
2022-12-15T00:28:34.542Z,-6.10
2022-12-15T00:31:22.199Z,-6.10
2022-12-15T00:34:10.352Z,-6.20
2022-12-15T00:36:56.441Z,-6.20
2022-12-15T00:39:24.943Z,-6.20
2022-12-15T00:41:53.373Z,-6.20
2022-12-15T00:44:23.327Z,-6.20
2022-12-15T00:46:55.217Z,-6.30
2022-12-15T00:49:41.917Z,-6.30
2022-12-15T00:52:28.452Z,-6.30
2022-12-15T00:55:14.584Z,-6.20
2022-12-15T00:58:01.189Z,-6.20
2022-12-15T01:00:47.510Z,-6.20
2022-12-15T01:03:36.536Z,-6.20
2022-12-15T01:06:24.897Z,-6.20
2022-12-15T01:09:11.055Z,-6.20
2022-12-15T01:11:57.197Z,-6.20
2022-12-15T01:14:43.968Z,-6.20
2022-12-15T01:17:29.831Z,-6.20
2022-12-15T01:20:18.830Z,-6.30
2022-12-15T01:22:47.879Z,-6.30
2022-12-15T01:25:17.915Z,-6.40
2022-12-15T01:27:46.607Z,-6.40
2022-12-15T01:30:17.344Z,-6.30
2022-12-15T01:32:46.480Z,-6.30
2022-12-15T01:35:18.056Z,-6.30
2022-12-15T01:37:49.976Z,-6.20
2022-12-15T01:40:37.788Z,-6.30
2022-12-15T01:43:12.830Z,-6.30
2022-12-15T01:45:49.878Z,-6.30
2022-12-15T01:48:26.086Z,-6.40
2022-12-15T01:51:05.548Z,-6.40
2022-12-15T01:53:37.664Z,-6.40
2022-12-15T01:56:09.537Z,-6.50
2022-12-15T01:58:38.930Z,-6.50
2022-12-15T02:01:08.274Z,-6.40
2022-12-15T02:03:38.939Z,-6.40
2022-12-15T02:06:10.224Z,-6.40
2022-12-15T02:08:39.623Z,-6.40
2022-12-15T02:11:33.658Z,-6.50
2022-12-15T02:14:04.379Z,-6.50
2022-12-15T02:16:45.270Z,-6.40
2022-12-15T02:19:34.719Z,-6.40
2022-12-15T02:22:18.657Z,-6.30
2022-12-15T02:25:08.722Z,-6.30
2022-12-15T02:27:53.287Z,-6.30
2022-12-15T02:30:30.751Z,-6.20
2022-12-15T02:33:09.847Z,-6.20
2022-12-15T02:35:49.173Z,-6.10
2022-12-15T02:38:28.391Z,-6.10
2022-12-15T02:40:59.790Z,-6.00
2022-12-15T02:43:30.536Z,-6.00
2022-12-15T02:46:14.853Z,-6.10
2022-12-15T02:48:55.299Z,-6.20
2022-12-15T02:51:36.858Z,-6.20
2022-12-15T02:54:31.014Z,-6.30
2022-12-15T02:57:06.105Z,-6.30
2022-12-15T02:59:42.268Z,-6.40
2022-12-15T03:02:15.006Z,-6.50
2022-12-15T03:04:45.534Z,-6.50
2022-12-15T03:07:15.902Z,-6.50
2022-12-15T03:09:44.165Z,-6.50
2022-12-15T03:12:12.492Z,-6.50
2022-12-15T03:14:41.885Z,-6.50
2022-12-15T03:17:11.359Z,-6.60
2022-12-15T03:19:39.662Z,-6.60
2022-12-15T03:22:08.606Z,-6.70
2022-12-15T03:24:39.124Z,-6.70
2022-12-15T03:27:07.364Z,-6.80
2022-12-15T03:29:35.888Z,-6.80
2022-12-15T03:32:04.173Z,-6.70
2022-12-15T03:34:34.036Z,-6.60
2022-12-15T03:37:02.482Z,-6.50
2022-12-15T03:39:30.615Z,-6.50
2022-12-15T03:41:59.366Z,-6.40
2022-12-15T03:44:27.999Z,-6.40
2022-12-15T03:47:02.832Z,-6.30
2022-12-15T03:49:33.232Z,-6.30
2022-12-15T03:52:01.382Z,-6.30
2022-12-15T03:54:29.657Z,-6.30
2022-12-15T03:56:58.215Z,-6.40
2022-12-15T03:59:26.346Z,-6.30
2022-12-15T04:01:54.710Z,-6.30
2022-12-15T04:04:23.478Z,-6.40
2022-12-15T04:06:52.998Z,-6.50
2022-12-15T04:09:21.088Z,-6.50
2022-12-15T04:11:49.665Z,-6.50
2022-12-15T04:14:17.873Z,-6.50
2022-12-15T04:16:46.070Z,-6.50
2022-12-15T04:19:31.911Z,-6.50
2022-12-15T04:22:04.691Z,-6.50
2022-12-15T04:24:50.957Z,-6.50
2022-12-15T04:27:36.810Z,-6.50
2022-12-15T04:30:23.617Z,-6.50
2022-12-15T04:33:09.414Z,-6.50
2022-12-15T04:35:55.518Z,-6.50
2022-12-15T04:38:50.352Z,-6.60
2022-12-15T04:41:37.933Z,-6.60
2022-12-15T04:44:24.462Z,-6.60
2022-12-15T04:47:10.448Z,-6.60
2022-12-15T04:49:56.362Z,-6.60
2022-12-15T04:52:42.231Z,-6.60
2022-12-15T04:55:29.148Z,-6.50
2022-12-15T04:58:15.859Z,-6.40
2022-12-15T05:01:01.726Z,-6.40
2022-12-15T05:03:47.365Z,-6.30
2022-12-15T05:06:33.037Z,-6.30
2022-12-15T05:09:18.819Z,-6.30
2022-12-15T05:12:06.452Z,-6.30
2022-12-15T05:14:52.717Z,-6.30
2022-12-15T05:17:41.568Z,-6.30
2022-12-15T05:20:28.765Z,-6.30
2022-12-15T05:23:15.002Z,-6.30
2022-12-15T05:26:01.539Z,-6.40
2022-12-15T05:28:48.841Z,-6.50
2022-12-15T05:31:34.610Z,-6.50
2022-12-15T05:34:05.787Z,-6.50
2022-12-15T05:36:34.483Z,-6.60
2022-12-15T05:39:02.682Z,-6.70
2022-12-15T05:41:30.904Z,-6.70
2022-12-15T05:44:00.640Z,-6.80
2022-12-15T05:46:28.875Z,-6.80
2022-12-15T05:48:57.366Z,-6.80
2022-12-15T05:51:25.714Z,-6.80
2022-12-15T05:53:53.843Z,-6.70
2022-12-15T05:56:22.687Z,-6.60
2022-12-15T05:58:53.032Z,-6.60
2022-12-15T06:01:22.886Z,-6.70
2022-12-15T06:03:51.288Z,-6.60
2022-12-15T06:06:19.915Z,-6.70
2022-12-15T06:08:49.914Z,-6.70
2022-12-15T06:11:20.148Z,-6.80
2022-12-15T06:13:48.765Z,-6.80
2022-12-15T06:16:18.950Z,-6.80
2022-12-15T06:18:51.539Z,-6.80
2022-12-15T06:21:21.591Z,-6.80
2022-12-15T06:23:49.798Z,-6.70
2022-12-15T06:26:20.932Z,-6.60
2022-12-15T06:28:49.821Z,-6.40
2022-12-15T06:31:23.184Z,-6.30
2022-12-15T06:33:59.273Z,-6.20
2022-12-15T06:36:31.089Z,-6.20
2022-12-15T06:39:00.586Z,-6.20
2022-12-15T06:41:30.890Z,-6.30
2022-12-15T06:43:59.659Z,-6.30
2022-12-15T06:46:29.398Z,-6.30
2022-12-15T06:49:02.604Z,-6.40
2022-12-15T06:51:30.862Z,-6.30
2022-12-15T06:53:59.085Z,-6.20
2022-12-15T06:56:33.574Z,-6.30
2022-12-15T06:59:04.321Z,-6.30
2022-12-15T07:01:33.676Z,-6.30
2022-12-15T07:04:05.608Z,-6.40
2022-12-15T07:06:37.656Z,-6.40
2022-12-15T07:09:10.458Z,-6.30
2022-12-15T07:11:38.885Z,-6.20
2022-12-15T07:14:07.330Z,-6.20
2022-12-15T07:16:35.587Z,-6.20
2022-12-15T07:19:05.651Z,-6.20
2022-12-15T07:21:33.937Z,-6.20
2022-12-15T07:24:02.772Z,-6.30
2022-12-15T07:26:31.606Z,-6.30
2022-12-15T07:29:00.013Z,-6.40
2022-12-15T07:31:28.290Z,-6.40
2022-12-15T07:33:58.270Z,-6.40
2022-12-15T07:36:28.734Z,-6.40
2022-12-15T07:39:01.692Z,-6.30
2022-12-15T07:41:30.391Z,-6.30
2022-12-15T07:43:58.947Z,-6.30
2022-12-15T07:46:30.781Z,-6.40
2022-12-15T07:48:59.267Z,-6.40
2022-12-15T07:51:28.976Z,-6.40
2022-12-15T07:53:57.989Z,-6.40
2022-12-15T07:56:26.146Z,-6.40
2022-12-15T07:58:54.771Z,-6.40
2022-12-15T08:01:23.276Z,-6.40
2022-12-15T08:03:51.595Z,-6.40
2022-12-15T08:06:19.865Z,-6.40
2022-12-15T08:08:50.692Z,-6.30
2022-12-15T08:11:20.964Z,-6.30
2022-12-15T08:14:02.615Z,-6.30
2022-12-15T08:16:34.713Z,-6.20
2022-12-15T08:19:03.541Z,-6.20
2022-12-15T08:21:32.163Z,-6.20
2022-12-15T08:24:02.072Z,-6.20
2022-12-15T08:26:31.694Z,-6.20
2022-12-15T08:29:40.540Z,-6.20
2022-12-15T08:31:53.978Z,-6.10
2022-12-15T08:34:22.592Z,-6.10
2022-12-15T08:36:50.981Z,-5.90
2022-12-15T08:39:24.968Z,-5.80
2022-12-15T08:41:53.154Z,-5.80
2022-12-15T08:44:21.678Z,-5.70
2022-12-15T08:46:51.417Z,-5.60
2022-12-15T08:49:22.112Z,-5.60
2022-12-15T08:51:51.478Z,-5.50
2022-12-15T08:54:21.892Z,-5.40
2022-12-15T08:56:50.878Z,-5.40
2022-12-15T08:59:20.207Z,-5.40
2022-12-15T09:01:49.057Z,-5.30
2022-12-15T09:04:17.909Z,-5.20
2022-12-15T09:06:50.899Z,-5.10
2022-12-15T09:09:21.317Z,-5.00
2022-12-15T09:11:50.162Z,-4.90
2022-12-15T09:14:25.570Z,-4.80
2022-12-15T09:16:57.449Z,-4.70
2022-12-15T09:19:26.401Z,-4.50
2022-12-15T09:21:54.561Z,-4.40
2022-12-15T09:24:34.044Z,-4.20
2022-12-15T09:27:04.528Z,-4.00
2022-12-15T09:29:33.381Z,-3.80
2022-12-15T09:32:01.559Z,-3.70
2022-12-15T09:34:30.303Z,-3.60
2022-12-15T09:36:58.759Z,-3.40
2022-12-15T09:39:28.682Z,-3.40
2022-12-15T09:42:00.467Z,-3.20
2022-12-15T09:44:31.477Z,-3.20
2022-12-15T09:47:09.586Z,-3.00
2022-12-15T09:49:50.843Z,-2.70
2022-12-15T09:52:23.808Z,-2.30
2022-12-15T09:54:54.208Z,-2.00
2022-12-15T09:57:38.576Z,-1.70
2022-12-15T10:00:21.769Z,-1.40
2022-12-15T10:03:17.573Z,-1.00
2022-12-15T10:08:47.183Z,-0.50
2022-12-15T10:11:27.288Z,-0.20
2022-12-15T10:14:02.706Z,-0.10
2022-12-15T10:16:37.420Z,-0.20
2022-12-15T10:19:12.379Z,-0.10
2022-12-15T10:21:40.842Z,0.10
2022-12-15T10:24:37.569Z,0.20
2022-12-15T10:27:21.490Z,0.30
2022-12-15T10:29:57.132Z,0.60
2022-12-15T10:32:35.480Z,0.70
2022-12-15T10:35:13.519Z,0.80
2022-12-15T10:37:42.690Z,0.90
2022-12-15T10:40:17.212Z,1.00
2022-12-15T10:42:49.419Z,1.00
2022-12-15T10:45:39.266Z,1.20
2022-12-15T10:48:19.024Z,1.30
2022-12-15T10:50:50.084Z,1.40
2022-12-15T10:53:39.770Z,1.50
2022-12-15T10:56:09.800Z,1.60
2022-12-15T10:58:50.489Z,1.70
2022-12-15T11:01:21.153Z,1.70
2022-12-15T11:03:52.802Z,1.80
2022-12-15T11:06:23.669Z,1.80
2022-12-15T11:08:54.137Z,1.90
2022-12-15T11:11:50.292Z,2.00
2022-12-15T11:14:24.279Z,2.00
2022-12-15T11:16:56.136Z,2.00
2022-12-15T11:19:39.483Z,1.80
2022-12-15T11:22:14.315Z,1.80
2022-12-15T11:24:48.949Z,1.80
2022-12-15T11:27:25.737Z,1.80
2022-12-15T11:30:05.181Z,2.00
2022-12-15T11:32:36.146Z,2.10
2022-12-15T11:35:04.929Z,2.00
2022-12-15T11:37:41.728Z,2.00
2022-12-15T11:40:32.083Z,2.00
2022-12-15T11:43:29.325Z,2.00
2022-12-15T11:46:14.927Z,2.10
2022-12-15T11:48:53.292Z,2.10
2022-12-15T11:51:31.060Z,2.20
2022-12-15T11:54:15.001Z,2.20
2022-12-15T11:56:47.304Z,2.30
2022-12-15T11:59:47.116Z,2.30
2022-12-15T12:02:36.772Z,2.20
2022-12-15T12:05:32.667Z,2.10
2022-12-15T12:08:06.872Z,2.00
2022-12-15T12:10:41.210Z,2.00
2022-12-15T12:13:17.586Z,2.00
2022-12-15T12:15:56.050Z,2.10
2022-12-15T12:18:29.252Z,2.20
2022-12-15T12:21:04.615Z,2.30
2022-12-15T12:23:40.498Z,2.30
2022-12-15T12:26:16.031Z,2.40
2022-12-15T12:28:50.233Z,2.40
2022-12-15T12:31:28.608Z,2.50
2022-12-15T12:34:07.143Z,2.60
2022-12-15T12:36:35.890Z,2.70
2022-12-15T12:39:04.293Z,2.80
2022-12-15T12:41:42.987Z,2.90
2022-12-15T12:44:19.615Z,2.90
2022-12-15T12:46:51.730Z,3.00
2022-12-15T12:49:28.739Z,3.00
2022-12-15T12:51:59.658Z,2.90
2022-12-15T12:54:43.279Z,3.00
2022-12-15T12:57:37.662Z,2.80
2022-12-15T13:00:17.692Z,2.80
2022-12-15T13:03:11.090Z,2.80
2022-12-15T13:05:42.396Z,2.80
2022-12-15T13:08:51.683Z,2.70
2022-12-15T13:12:03.211Z,2.70
2022-12-15T13:14:48.200Z,2.70
2022-12-15T13:17:30.475Z,2.70
2022-12-15T13:20:29.847Z,2.70
2022-12-15T13:23:34.545Z,2.90
2022-12-15T13:26:19.191Z,2.90
2022-12-15T13:28:52.577Z,3.00
2022-12-15T13:31:39.330Z,2.90
2022-12-15T13:34:19.133Z,3.00
2022-12-15T13:36:59.300Z,2.90
2022-12-15T13:39:37.176Z,2.90
2022-12-15T13:42:38.881Z,2.90
2022-12-15T13:45:43.157Z,2.90
2022-12-15T13:48:31.671Z,2.90
2022-12-15T13:51:07.024Z,2.90
2022-12-15T13:53:42.657Z,3.00
2022-12-15T13:56:50.672Z,3.00
2022-12-15T13:59:30.951Z,3.00
2022-12-15T14:01:59.292Z,3.00
2022-12-15T14:04:28.242Z,3.00
2022-12-15T14:06:59.006Z,3.00
2022-12-15T14:09:31.686Z,3.00
2022-12-15T14:12:04.847Z,2.90
2022-12-15T14:14:35.598Z,2.90
2022-12-15T14:17:07.910Z,3.00
2022-12-15T14:19:41.580Z,3.00
2022-12-15T14:22:27.489Z,2.90
2022-12-15T14:25:02.439Z,2.90
2022-12-15T14:27:34.453Z,2.90
2022-12-15T14:30:14.350Z,2.90
2022-12-15T14:32:44.952Z,2.90
2022-12-15T14:35:20.375Z,2.80
2022-12-15T14:37:49.075Z,2.80
2022-12-15T14:40:23.625Z,2.70
2022-12-15T14:42:56.695Z,2.70
2022-12-15T14:45:28.353Z,2.60
2022-12-15T14:48:30.933Z,2.60
2022-12-15T14:50:51.287Z,2.50
2022-12-15T14:53:21.631Z,2.30
2022-12-15T14:55:50.191Z,2.20
2022-12-15T14:58:36.634Z,2.10
2022-12-15T15:01:20.807Z,2.00
2022-12-15T15:03:58.590Z,1.90
2022-12-15T15:06:35.821Z,1.80
2022-12-15T15:09:22.579Z,1.70
2022-12-15T15:11:55.127Z,1.60
2022-12-15T15:14:27.983Z,1.50
2022-12-15T15:17:04.540Z,1.40
2022-12-15T15:19:39.409Z,1.20
2022-12-15T15:22:22.457Z,1.10
2022-12-15T15:24:52.973Z,0.90
2022-12-15T15:27:26.629Z,0.80
2022-12-15T15:30:15.326Z,0.70
2022-12-15T15:32:55.880Z,0.50
2022-12-15T15:35:26.478Z,0.40
2022-12-15T15:37:59.810Z,0.30
2022-12-15T15:40:28.252Z,0.20
2022-12-15T15:42:57.034Z,0.20
2022-12-15T15:45:26.711Z,0.10
2022-12-15T15:47:56.041Z,0.10
2022-12-15T15:50:29.827Z,0.00
2022-12-15T15:52:59.163Z,0.00
2022-12-15T15:55:36.262Z,-0.10
2022-12-15T15:58:12.378Z,-0.20
2022-12-15T16:00:42.047Z,-0.30
2022-12-15T16:03:10.930Z,-0.30
2022-12-15T16:05:40.098Z,-0.40
2022-12-15T16:08:13.652Z,-0.50
2022-12-15T16:10:45.516Z,-0.50
2022-12-15T16:13:14.272Z,-0.60
2022-12-15T16:15:45.764Z,-0.70
2022-12-15T16:18:14.314Z,-0.80
2022-12-15T16:20:45.043Z,-0.80
2022-12-15T16:23:20.045Z,-0.90
2022-12-15T16:25:51.384Z,-1.00
2022-12-15T16:28:23.786Z,-1.10
2022-12-15T16:30:54.403Z,-1.10
2022-12-15T16:33:23.093Z,-1.20
2022-12-15T16:35:52.576Z,-1.20
2022-12-15T16:38:26.573Z,-1.30
2022-12-15T16:40:55.679Z,-1.30
2022-12-15T16:43:27.966Z,-1.40
2022-12-15T16:46:02.712Z,-1.50
2022-12-15T16:48:31.650Z,-1.60
2022-12-15T16:51:00.523Z,-1.60
2022-12-15T16:53:33.220Z,-1.70
2022-12-15T16:56:03.287Z,-1.70
2022-12-15T16:58:32.352Z,-1.80
2022-12-15T17:01:02.413Z,-1.80
2022-12-15T17:03:31.213Z,-1.90
2022-12-15T17:06:02.843Z,-1.90
2022-12-15T17:08:40.189Z,-1.90
2022-12-15T17:11:13.202Z,-2.00
2022-12-15T17:13:45.870Z,-2.00
2022-12-15T17:16:16.271Z,-2.10
2022-12-15T17:18:44.826Z,-2.10
2022-12-15T17:21:17.141Z,-2.10
2022-12-15T17:23:47.075Z,-2.10
2022-12-15T17:26:28.552Z,-2.20
2022-12-15T17:29:01.274Z,-2.10
2022-12-15T17:31:35.643Z,-2.10
2022-12-15T17:34:23.213Z,-2.10
2022-12-15T17:36:51.578Z,-2.20
2022-12-15T17:39:20.591Z,-2.30
2022-12-15T17:42:06.109Z,-2.30
2022-12-15T17:44:38.511Z,-2.40
2022-12-15T17:47:09.670Z,-2.50
2022-12-15T17:49:39.081Z,-2.60
2022-12-15T17:52:23.649Z,-2.60
2022-12-15T17:54:53.307Z,-2.70
2022-12-15T17:57:21.483Z,-2.70
2022-12-15T17:59:50.207Z,-2.70
2022-12-15T18:02:20.119Z,-2.70
2022-12-15T18:04:48.403Z,-2.80
2022-12-15T18:07:20.696Z,-2.80
2022-12-15T18:09:50.115Z,-2.90
2022-12-15T18:12:22.242Z,-3.00
2022-12-15T18:14:50.488Z,-3.00
2022-12-15T18:17:20.124Z,-3.00
2022-12-15T18:19:48.540Z,-3.10
2022-12-15T18:22:22.653Z,-3.10
2022-12-15T18:24:52.757Z,-3.10
2022-12-15T18:27:23.927Z,-3.10
2022-12-15T18:29:52.151Z,-3.20
2022-12-15T18:32:24.609Z,-3.20
2022-12-15T18:34:53.678Z,-3.20
2022-12-15T18:37:24.839Z,-3.20
2022-12-15T18:39:53.634Z,-3.30
2022-12-15T18:42:23.216Z,-3.30
2022-12-15T18:44:53.511Z,-3.40
2022-12-15T18:47:25.139Z,-3.30
2022-12-15T18:49:53.617Z,-3.30
2022-12-15T18:52:24.145Z,-3.30
2022-12-15T18:54:54.501Z,-3.30
2022-12-15T18:57:28.874Z,-3.30
2022-12-15T18:59:59.520Z,-3.20
2022-12-15T19:02:29.185Z,-3.30
2022-12-15T19:04:57.408Z,-3.30
2022-12-15T19:07:26.009Z,-3.30
2022-12-15T19:09:54.657Z,-3.30
2022-12-15T19:12:23.034Z,-3.30
2022-12-15T19:14:55.311Z,-3.30
2022-12-15T19:17:42.825Z,-3.30
2022-12-15T19:20:36.099Z,-3.30
2022-12-15T19:23:07.378Z,-3.40
2022-12-15T19:25:36.400Z,-3.40
2022-12-15T19:28:05.257Z,-3.50
2022-12-15T19:30:41.576Z,-3.50
2022-12-15T19:33:10.824Z,-3.50
2022-12-15T19:35:43.107Z,-3.40
2022-12-15T19:38:20.987Z,-3.40
2022-12-15T19:40:53.135Z,-3.50
2022-12-15T19:43:22.515Z,-3.50
2022-12-15T19:45:52.051Z,-3.50
2022-12-15T19:48:23.725Z,-3.50
2022-12-15T19:50:54.871Z,-3.50
2022-12-15T19:53:25.754Z,-3.50
2022-12-15T19:55:57.292Z,-3.60
2022-12-15T19:58:28.965Z,-3.60
2022-12-15T20:00:59.597Z,-3.60
2022-12-15T20:03:29.048Z,-3.60
2022-12-15T20:06:01.263Z,-3.60
2022-12-15T20:08:33.894Z,-3.60
2022-12-15T20:11:02.560Z,-3.50
2022-12-15T20:13:31.655Z,-3.50
2022-12-15T20:16:00.044Z,-3.50
2022-12-15T20:18:28.594Z,-3.50
2022-12-15T20:20:59.226Z,-3.60
2022-12-15T20:23:29.493Z,-3.60
2022-12-15T20:25:58.911Z,-3.60
2022-12-15T20:28:28.894Z,-3.60
2022-12-15T20:30:58.446Z,-3.70
2022-12-15T20:33:26.716Z,-3.70
2022-12-15T20:35:55.410Z,-3.80
2022-12-15T20:38:31.605Z,-3.80
2022-12-15T20:41:01.121Z,-4.00
2022-12-15T20:43:32.552Z,-4.00
2022-12-15T20:46:06.882Z,-4.00
2022-12-15T20:48:36.973Z,-4.00
2022-12-15T20:51:09.234Z,-4.10
2022-12-15T20:53:40.042Z,-4.10
2022-12-15T20:56:08.823Z,-4.10
2022-12-15T20:58:39.931Z,-4.20
2022-12-15T21:01:21.970Z,-4.20
2022-12-15T21:03:54.660Z,-4.30
2022-12-15T21:06:25.338Z,-4.30
2022-12-15T21:08:56.302Z,-4.40
2022-12-15T21:11:26.862Z,-4.40
2022-12-15T21:13:58.920Z,-4.40
2022-12-15T21:16:30.144Z,-4.40
2022-12-15T21:21:49.662Z,-4.40
2022-12-15T21:24:25.357Z,-4.50
2022-12-15T21:26:54.831Z,-4.50
2022-12-15T21:29:24.913Z,-4.60
2022-12-15T21:31:53.294Z,-4.60
2022-12-15T21:34:21.626Z,-4.70
2022-12-15T21:36:55.035Z,-4.70
2022-12-15T21:39:29.681Z,-4.70
2022-12-15T21:42:00.836Z,-4.70
2022-12-15T21:44:29.499Z,-4.70
2022-12-15T21:46:57.828Z,-4.80
2022-12-15T21:49:26.787Z,-4.80
2022-12-15T21:51:58.186Z,-4.80
2022-12-15T21:54:31.618Z,-4.80
2022-12-15T21:57:00.991Z,-4.80
2022-12-15T21:59:30.755Z,-4.80
2022-12-15T22:02:00.474Z,-4.80
2022-12-15T22:04:31.359Z,-4.80
2022-12-15T22:06:59.963Z,-4.80
2022-12-15T22:09:29.810Z,-4.70
2022-12-15T22:11:58.575Z,-4.80
2022-12-15T22:14:29.574Z,-4.80
2022-12-15T22:16:59.535Z,-4.80
2022-12-15T22:19:28.326Z,-4.80
2022-12-15T22:21:56.590Z,-4.90
2022-12-15T22:24:24.941Z,-4.90
2022-12-15T22:26:54.668Z,-4.90
2022-12-15T22:29:23.946Z,-4.90
2022-12-15T22:31:52.625Z,-4.80
2022-12-15T22:34:25.308Z,-4.60
2022-12-15T22:36:54.899Z,-4.20
2022-12-15T22:39:23.532Z,-4.00
2022-12-15T22:41:54.808Z,-3.80
2022-12-15T22:44:26.085Z,-3.80
2022-12-15T22:46:57.861Z,-3.80
2022-12-15T22:49:30.043Z,-3.90
2022-12-15T22:51:58.553Z,-4.00
2022-12-15T22:54:28.813Z,-4.10
2022-12-15T22:57:01.672Z,-4.10
2022-12-15T22:59:34.102Z,-4.30
2022-12-15T23:02:04.222Z,-4.30
2022-12-15T23:04:33.721Z,-4.40
2022-12-15T23:07:06.119Z,-4.40
2022-12-15T23:09:34.417Z,-4.40
2022-12-15T23:12:03.041Z,-4.50
2022-12-15T23:14:49.376Z,-4.50
2022-12-15T23:17:17.845Z,-4.50
2022-12-15T23:19:46.966Z,-4.60
2022-12-15T23:22:15.820Z,-4.50
2022-12-15T23:24:44.040Z,-4.40
2022-12-15T23:27:14.030Z,-4.40
2022-12-15T23:29:42.441Z,-4.50
2022-12-15T23:32:10.710Z,-4.50
2022-12-15T23:34:39.142Z,-4.60
2022-12-15T23:37:07.556Z,-4.60
2022-12-15T23:39:36.505Z,-4.70
2022-12-15T23:42:05.631Z,-4.70
2022-12-15T23:44:37.578Z,-4.80
2022-12-15T23:47:06.143Z,-4.80
2022-12-15T23:49:34.434Z,-4.70
2022-12-15T23:52:02.681Z,-4.60
2022-12-15T23:54:31.223Z,-4.60
2022-12-15T23:56:59.427Z,-4.60
2022-12-15T23:59:27.850Z,-4.50
